createdAt,value
2022-09-15T00:03:46.188Z,100710.22
2022-09-15T00:13:51.331Z,100698.06
2022-09-15T00:23:54.377Z,100705.94
2022-09-15T00:34:02.509Z,100689.56
2022-09-15T00:44:07.680Z,100694.59
2022-09-15T00:54:15.785Z,100705.69
2022-09-15T01:04:18.768Z,100710.69
2022-09-15T01:14:23.276Z,100698.47
2022-09-15T01:24:47.027Z,100693.94
2022-09-15T01:34:58.702Z,100687.81
2022-09-15T01:45:06.254Z,100689.53
2022-09-15T01:55:18.285Z,100687.22
2022-09-15T02:05:27.171Z,100690.09
2022-09-15T02:15:34.516Z,100683.25
2022-09-15T02:25:43.685Z,100685.81
2022-09-15T02:35:48.648Z,100686.78
2022-09-15T02:45:51.431Z,100686.97
2022-09-15T02:55:56.326Z,100685.47
2022-09-15T03:06:16.516Z,100690.94
2022-09-15T03:16:21.375Z,100699.75
2022-09-15T03:26:24.348Z,100712.78
2022-09-15T03:36:28.666Z,100741.94
2022-09-15T03:46:31.906Z,100751.16
2022-09-15T03:56:36.433Z,100743.31
2022-09-15T04:06:39.930Z,100730.47
2022-09-15T04:16:44.303Z,100725.31
2022-09-15T04:26:47.359Z,100738.25
2022-09-15T04:36:51.863Z,100726.91
2022-09-15T04:46:54.864Z,100728.47
2022-09-15T04:56:59.229Z,100742.19
2022-09-15T05:07:02.296Z,100729.25
2022-09-15T05:17:06.694Z,100714.59
2022-09-15T05:27:09.646Z,100720.63
2022-09-15T05:37:14.166Z,100733.53
2022-09-15T05:47:17.458Z,100748.00
2022-09-15T05:57:21.792Z,100755.47
2022-09-15T06:07:26.017Z,100754.44
2022-09-15T06:17:33.015Z,100770.56
2022-09-15T06:27:35.957Z,100766.00
2022-09-15T06:37:40.490Z,100778.31
2022-09-15T06:47:43.556Z,100759.09
2022-09-15T06:57:47.982Z,100758.91
2022-09-15T07:07:51.082Z,100771.25
2022-09-15T07:17:55.863Z,100761.94
2022-09-15T07:27:58.743Z,100751.00
2022-09-15T07:38:05.781Z,100752.19
2022-09-15T07:48:09.970Z,100742.69
2022-09-15T07:58:14.951Z,100745.97
2022-09-15T08:08:18.004Z,100740.31
2022-09-15T08:18:22.572Z,100750.25
2022-09-15T08:28:26.177Z,100759.97
2022-09-15T08:38:30.538Z,100770.50
2022-09-15T08:48:40.930Z,100775.44
2022-09-15T08:58:46.794Z,100784.75
2022-09-15T09:09:16.119Z,100796.38
2022-09-15T09:19:36.689Z,100803.34
2022-09-15T09:29:43.478Z,100796.63
2022-09-15T09:39:48.146Z,100801.44
2022-09-15T09:49:51.474Z,100794.41
2022-09-15T09:59:57.054Z,100803.72
2022-09-15T10:10:02.537Z,100809.88
2022-09-15T10:20:24.342Z,100818.13
2022-09-15T10:30:28.432Z,100805.56
2022-09-15T10:40:40.725Z,100799.72
2022-09-15T10:50:54.743Z,100817.09
2022-09-15T11:01:10.119Z,100819.56
2022-09-15T11:11:20.207Z,100814.09
2022-09-15T11:21:30.440Z,100814.38
2022-09-15T11:31:39.592Z,100818.59
2022-09-15T11:41:52.496Z,100816.09
2022-09-15T11:52:02.606Z,100827.06
2022-09-15T12:02:17.828Z,100819.09
2022-09-15T12:12:24.112Z,100800.50
2022-09-15T12:22:36.815Z,100787.78
2022-09-15T12:32:40.534Z,100794.69
2022-09-15T12:42:47.577Z,100786.75
2022-09-15T12:52:53.695Z,100793.13
2022-09-15T13:02:58.339Z,100779.69
2022-09-15T13:13:16.684Z,100784.41
2022-09-15T13:23:25.057Z,100793.56
2022-09-15T13:44:43.474Z,100799.28
2022-09-15T13:55:24.201Z,100800.72
2022-09-15T14:05:33.146Z,100803.56
2022-09-15T14:15:36.450Z,100801.75
2022-09-15T14:25:47.083Z,100824.25
2022-09-15T14:35:50.713Z,100816.44
2022-09-15T14:46:04.492Z,100829.53
2022-09-15T14:56:17.442Z,100825.13
2022-09-15T15:06:29.620Z,100843.16
2022-09-15T15:16:33.326Z,100846.66
2022-09-15T15:26:40.085Z,100846.69
2022-09-15T15:36:44.260Z,100851.41
2022-09-15T15:46:53.302Z,100867.47
2022-09-15T15:57:05.413Z,100871.84
2022-09-15T16:07:17.397Z,100868.63
2022-09-15T16:17:21.074Z,100867.66
2022-09-15T16:27:31.716Z,100875.59
2022-09-15T16:37:42.136Z,100877.63
2022-09-15T16:47:49.205Z,100882.50
2022-09-15T16:57:55.494Z,100878.13
2022-09-15T17:08:10.791Z,100876.94
2022-09-15T17:18:15.590Z,100884.25
2022-09-15T17:28:22.744Z,100885.31
2022-09-15T17:38:25.826Z,100887.41
2022-09-15T17:48:30.321Z,100892.91
2022-09-15T17:58:33.492Z,100896.66
2022-09-15T18:08:38.031Z,100905.75
2022-09-15T18:18:41.167Z,100915.81
2022-09-15T18:28:45.773Z,100916.91
2022-09-15T18:38:48.868Z,100920.69
2022-09-15T18:48:53.376Z,100927.22
2022-09-15T18:58:56.848Z,100942.41
2022-09-15T19:09:02.519Z,100945.38
2022-09-15T19:19:05.793Z,100947.25
2022-09-15T19:29:10.964Z,100959.28
2022-09-15T19:39:14.984Z,100959.25
2022-09-15T19:49:19.559Z,100967.16
2022-09-15T19:59:26.294Z,100958.75
2022-09-15T20:09:33.473Z,100969.34
2022-09-15T20:19:37.185Z,100973.72
2022-09-15T20:29:41.822Z,100979.00
2022-09-15T20:39:48.262Z,100985.81
2022-09-15T20:49:52.796Z,101013.34
2022-09-15T20:59:55.855Z,101012.44
2022-09-15T21:10:00.224Z,101008.16
2022-09-15T21:20:03.844Z,100988.28
2022-09-15T21:30:09.471Z,100990.88
2022-09-15T21:40:13.191Z,100990.03
2022-09-15T21:50:17.822Z,100998.56
2022-09-15T22:00:20.828Z,100995.97
2022-09-15T22:10:25.247Z,101005.56
2022-09-15T22:20:29.479Z,101001.41
2022-09-15T22:30:33.756Z,101016.31
2022-09-15T22:40:36.737Z,101013.06
2022-09-15T22:50:41.191Z,101020.03
2022-09-15T23:00:44.139Z,101004.56
2022-09-15T23:10:48.578Z,101015.75
2022-09-15T23:20:56.946Z,101011.44
2022-09-15T23:31:02.216Z,101000.22
2022-09-15T23:41:05.691Z,101001.06
2022-09-15T23:51:10.186Z,100991.47
